TimePST,TemperatureF,Dew PointF,Humidity,Sea Level PressureIn,VisibilityMPH,Wind Direction,Wind SpeedMPH,Gust SpeedMPH,PrecipitationIn,Events,Conditions,WindDirDegrees,DateUTC
12:53 AM,37.9,32.0,79,30.01,10.0,Calm,Calm,-,N/A,,Overcast,0,2013-02-20 08:53:00
1:53 AM,37.0,32.0,82,30.02,10.0,WNW,4.6,-,N/A,,Overcast,290,2013-02-20 09:53:00
2:53 AM,36.0,30.9,82,30.03,10.0,ENE,5.8,-,N/A,,Overcast,60,2013-02-20 10:53:00
3:53 AM,36.0,30.9,82,30.04,10.0,Calm,Calm,-,N/A,,Overcast,0,2013-02-20 11:53:00
4:53 AM,36.0,32.0,86,30.06,10.0,Calm,Calm,-,N/A,,Overcast,0,2013-02-20 12:53:00
5:53 AM,34.0,30.9,89,30.08,10.0,North,3.5,-,N/A,,Overcast,350,2013-02-20 13:53:00
6:53 AM,34.0,30.0,85,30.09,10.0,NNE,4.6,-,N/A,,Overcast,20,2013-02-20 14:53:00
7:53 AM,35.1,30.9,85,30.12,10.0,NE,3.5,-,N/A,,Overcast,40,2013-02-20 15:53:00
8:53 AM,36.0,30.9,82,30.13,10.0,Calm,Calm,-,N/A,,Overcast,0,2013-02-20 16:53:00
9:53 AM,41.0,33.1,73,30.12,10.0,Calm,Calm,-,N/A,,Scattered Clouds,0,2013-02-20 17:53:00
10:53 AM,43.0,32.0,65,30.11,10.0,Calm,Calm,-,N/A,,Mostly Cloudy,0,2013-02-20 18:53:00
11:53 AM,46.9,28.9,50,30.11,10.0,NW,4.6,-,N/A,,Clear,320,2013-02-20 19:53:00
12:53 PM,46.9,28.9,50,30.09,10.0,Calm,Calm,-,0.01,,Scattered Clouds,0,2013-02-20 20:53:00
1:53 PM,48.9,24.1,38,30.07,10.0,ENE,3.5,-,N/A,,Mostly Cloudy,70,2013-02-20 21:53:00
2:53 PM,48.9,26.1,41,30.06,10.0,Calm,Calm,-,N/A,,Overcast,0,2013-02-20 22:53:00
3:53 PM,48.9,28.0,44,30.05,10.0,WNW,9.2,-,N/A,,Overcast,300,2013-02-20 23:53:00
4:53 PM,48.0,27.0,44,30.06,10.0,NW,8.1,-,N/A,,Mostly Cloudy,310,2013-02-21 00:53:00
5:53 PM,46.9,28.0,48,30.05,10.0,NNW,3.5,-,N/A,,Overcast,330,2013-02-21 01:53:00
6:53 PM,46.9,28.0,48,30.06,10.0,Calm,Calm,-,N/A,,Overcast,0,2013-02-21 02:53:00
7:53 PM,45.0,30.9,58,30.07,10.0,West,6.9,-,N/A,,Overcast,260,2013-02-21 03:53:00
8:53 PM,43.0,34.0,71,30.09,10.0,NW,5.8,-,0.00,Rain,Light Rain,310,2013-02-21 04:53:00
9:45 PM,39.2,35.6,87,30.08,6.0,NNE,5.8,-,0.02,Rain,Rain,30,2013-02-21 05:45:00
9:53 PM,39.9,35.1,83,30.10,4.0,NE,4.6,-,0.04,Rain,Rain,40,2013-02-21 05:53:00
10:23 PM,39.2,35.6,87,30.08,10.0,ENE,3.5,-,0.03,Rain,Light Rain,60,2013-02-21 06:23:00
10:46 PM,39.2,35.6,87,30.10,10.0,North,3.5,-,0.03,Rain,Light Rain,10,2013-02-21 06:46:00
10:53 PM,39.0,37.0,93,30.12,7.0,North,4.6,-,0.04,Rain,Light Rain,10,2013-02-21 06:53:00
11:23 PM,39.2,35.6,87,30.11,10.0,NW,6.9,-,0.01,,Overcast,320,2013-02-21 07:23:00
11:53 PM,36.0,34.0,93,30.14,10.0,NE,3.5,-,0.01,,Partly Cloudy,50,2013-02-21 07:53:00